createdAt,value
2019-05-18T00:01:48.704Z,6.77
2019-05-18T00:04:18.943Z,7.00
2019-05-18T00:06:49.115Z,6.63
2019-05-18T00:09:19.300Z,6.50
2019-05-18T00:11:49.529Z,6.83
2019-05-18T00:14:19.708Z,6.23
2019-05-18T00:16:51.774Z,7.10
2019-05-18T00:19:21.987Z,11.78
2019-05-18T00:21:52.376Z,7.00
2019-05-18T00:24:22.543Z,7.30
2019-05-18T00:26:53.791Z,6.97
2019-05-18T00:29:23.940Z,6.70
2019-05-18T00:31:54.185Z,6.20
2019-05-18T00:34:25.517Z,6.47
2019-05-18T00:36:55.735Z,6.43
2019-05-18T00:39:25.881Z,6.03
2019-05-18T00:41:56.091Z,6.80
2019-05-18T00:44:26.273Z,7.03
2019-05-18T00:46:56.438Z,6.90
2019-05-18T00:49:27.198Z,5.83
2019-05-18T00:51:57.581Z,6.93
2019-05-18T00:54:27.726Z,6.28
2019-05-18T00:56:57.936Z,8.27
2019-05-18T00:59:28.164Z,6.03
2019-05-18T01:01:58.256Z,7.00
2019-05-18T01:04:28.530Z,6.70
2019-05-18T01:06:58.649Z,7.03
2019-05-18T01:09:29.023Z,6.93
2019-05-18T01:11:59.152Z,7.23
2019-05-18T01:14:29.521Z,7.20
2019-05-18T01:16:59.721Z,7.10
2019-05-18T01:19:31.510Z,6.00
2019-05-18T01:22:01.666Z,6.97
2019-05-18T01:24:36.436Z,6.23
2019-05-18T01:27:06.869Z,6.90
2019-05-18T01:29:37.151Z,5.97
2019-05-18T01:32:07.336Z,5.40
2019-05-18T01:34:37.597Z,6.07
2019-05-18T01:37:07.970Z,12.33
2019-05-18T01:39:38.128Z,6.27
2019-05-18T01:42:08.255Z,6.17
2019-05-18T01:44:38.611Z,6.73
2019-05-18T01:47:08.785Z,5.70
2019-05-18T01:49:39.005Z,6.50
2019-05-18T01:52:09.281Z,6.10
2019-05-18T01:54:39.460Z,6.50
2019-05-18T01:57:09.600Z,5.30
2019-05-18T01:59:42.098Z,5.60
2019-05-18T02:02:14.942Z,6.43
2019-05-18T02:04:45.158Z,5.70
2019-05-18T02:07:15.250Z,6.33
2019-05-18T02:09:45.486Z,6.77
2019-05-18T02:12:15.628Z,5.43
2019-05-18T02:14:47.530Z,6.40
2019-05-18T02:17:17.707Z,6.30
2019-05-18T02:19:47.979Z,6.80
2019-05-18T02:22:18.190Z,7.13
2019-05-18T02:24:48.359Z,7.17
2019-05-18T02:27:18.580Z,7.50
2019-05-18T02:29:48.791Z,7.33
2019-05-18T02:32:19.147Z,6.37
2019-05-18T02:34:49.271Z,7.73
2019-05-18T02:37:19.477Z,5.67
2019-05-18T02:39:52.281Z,6.50
2019-05-18T02:42:23.068Z,6.60
2019-05-18T02:44:54.305Z,6.37
2019-05-18T02:47:24.484Z,8.43
2019-05-18T02:49:54.636Z,6.67
2019-05-18T02:52:24.784Z,6.23
2019-05-18T02:54:54.919Z,6.47
2019-05-18T02:57:25.131Z,6.60
2019-05-18T02:59:55.295Z,6.73
2019-05-18T03:02:25.392Z,6.57
2019-05-18T03:04:56.667Z,6.53
2019-05-18T03:07:26.896Z,7.43
2019-05-18T03:09:57.193Z,5.77
2019-05-18T03:12:27.306Z,6.20
2019-05-18T03:14:57.531Z,6.90
2019-05-18T03:17:27.637Z,7.10
2019-05-18T03:19:57.795Z,6.50
2019-05-18T03:22:29.691Z,7.63
2019-05-18T03:24:59.897Z,6.73
2019-05-18T03:27:30.130Z,7.47
2019-05-18T03:30:00.300Z,6.60
2019-05-18T03:32:30.497Z,8.30
2019-05-18T03:35:00.937Z,7.63
2019-05-18T03:37:31.054Z,7.10
2019-05-18T03:40:01.533Z,6.43
2019-05-18T03:42:31.775Z,7.60
2019-05-18T03:45:03.682Z,6.80
2019-05-18T03:47:33.794Z,6.57
2019-05-18T03:50:04.346Z,6.23
2019-05-18T04:00:23.619Z,6.90
2019-05-18T04:02:53.714Z,6.40
2019-05-18T04:05:24.112Z,6.72
2019-05-18T04:07:54.284Z,6.77
2019-05-18T04:10:28.620Z,8.40
2019-05-18T04:12:59.022Z,7.50
2019-05-18T04:15:29.621Z,6.93
2019-05-18T04:17:59.737Z,8.37
2019-05-18T04:20:29.886Z,6.47
2019-05-18T04:23:00.132Z,6.47
2019-05-18T04:25:30.389Z,7.90
2019-05-18T04:28:00.514Z,8.20
2019-05-18T04:30:30.693Z,7.43
2019-05-18T04:33:02.511Z,9.20
2019-05-18T04:35:34.521Z,6.50
2019-05-18T04:38:04.824Z,6.50
2019-05-18T04:40:35.188Z,7.33
2019-05-18T04:43:05.297Z,6.63
2019-05-18T04:45:35.485Z,7.10
2019-05-18T04:48:05.650Z,7.73
2019-05-18T04:50:35.956Z,7.30
2019-05-18T04:53:06.072Z,7.73
2019-05-18T04:55:36.425Z,6.90
2019-05-18T04:58:06.574Z,6.53
2019-05-18T05:00:36.885Z,6.75
2019-05-18T05:03:06.991Z,5.93
2019-05-18T05:05:37.211Z,7.13
2019-05-18T05:08:07.490Z,11.20
2019-05-18T05:10:37.716Z,8.13
2019-05-18T05:13:09.162Z,8.10
2019-05-18T05:15:39.755Z,7.87
2019-05-18T05:18:10.131Z,7.57
2019-05-18T05:20:40.400Z,6.63
2019-05-18T05:23:10.622Z,5.50
2019-05-18T05:25:40.782Z,6.13
2019-05-18T05:28:10.937Z,4.80
2019-05-18T05:30:41.191Z,6.20
2019-05-18T05:33:11.401Z,6.20
2019-05-18T05:35:41.569Z,5.30
2019-05-18T05:38:11.715Z,6.30
2019-05-18T05:40:43.263Z,4.77
2019-05-18T05:43:13.484Z,9.00
2019-05-18T05:45:44.716Z,5.70
2019-05-18T05:48:14.829Z,6.20
2019-05-18T05:50:45.407Z,5.87
2019-05-18T05:53:17.979Z,6.47
2019-05-18T05:55:48.230Z,6.73
2019-05-18T05:58:18.589Z,7.13
2019-05-18T06:00:48.770Z,6.73
2019-05-18T06:03:18.965Z,14.00
2019-05-18T06:05:51.099Z,10.07
2019-05-18T06:08:21.344Z,6.90
2019-05-18T06:10:52.059Z,6.37
2019-05-18T06:13:22.288Z,6.37
2019-05-18T06:15:52.545Z,6.30
2019-05-18T06:18:22.730Z,11.80
2019-05-18T06:20:52.888Z,6.63
2019-05-18T06:23:23.251Z,7.43
2019-05-18T06:25:53.496Z,6.80
2019-05-18T06:28:23.721Z,7.80
2019-05-18T06:30:54.041Z,9.30
2019-05-18T06:33:24.206Z,6.20
2019-05-18T06:35:54.332Z,6.13
2019-05-18T06:38:24.972Z,6.33
2019-05-18T06:40:55.555Z,6.00
2019-05-18T06:43:27.297Z,6.10
2019-05-18T06:46:00.625Z,4.47
2019-05-18T06:48:31.193Z,17.50
2019-05-18T06:51:07.351Z,5.80
2019-05-18T06:53:33.520Z,4.77
2019-05-18T06:56:04.562Z,4.67
2019-05-18T06:58:37.737Z,4.23
2019-05-18T07:01:08.132Z,4.87
2019-05-18T07:03:38.570Z,4.30
2019-05-18T07:06:09.146Z,4.23
2019-05-18T07:08:41.784Z,4.73
2019-05-18T07:11:12.291Z,4.00
2019-05-18T07:13:42.677Z,5.63
2019-05-18T07:16:12.909Z,4.53
2019-05-18T07:18:43.338Z,4.50
2019-05-18T07:21:21.867Z,4.80
2019-05-18T07:23:46.441Z,4.30
2019-05-18T07:26:19.095Z,4.50
2019-05-18T07:28:49.605Z,5.13
2019-05-18T07:31:19.989Z,4.73
2019-05-18T07:33:50.191Z,4.77
2019-05-18T07:36:20.504Z,5.33
2019-05-18T07:38:50.896Z,4.33
2019-05-18T07:41:21.494Z,4.67
2019-05-18T07:43:52.065Z,5.50
2019-05-18T07:46:22.457Z,6.00
2019-05-18T07:48:52.992Z,5.78
2019-05-18T07:51:36.351Z,6.30
2019-05-18T07:53:56.536Z,5.43
2019-05-18T07:56:26.966Z,6.40
2019-05-18T07:58:57.226Z,5.40
2019-05-18T08:01:27.595Z,5.33
2019-05-18T08:03:58.437Z,4.10
2019-05-18T08:06:30.236Z,6.10
2019-05-18T08:09:00.726Z,3.97
2019-05-18T08:11:31.276Z,4.00
2019-05-18T08:14:02.382Z,3.47
2019-05-18T08:16:32.786Z,4.20
2019-05-18T08:19:04.377Z,3.40
2019-05-18T08:21:50.675Z,3.92
2019-05-18T08:24:11.514Z,3.80
2019-05-18T08:26:42.021Z,8.98
2019-05-18T08:29:15.115Z,3.93
2019-05-18T08:31:45.781Z,4.05
2019-05-18T08:34:16.270Z,7.75
2019-05-18T08:36:46.652Z,3.22
2019-05-18T08:39:17.289Z,3.35
2019-05-18T08:41:48.819Z,3.65
2019-05-18T08:44:19.965Z,3.00
2019-05-18T08:46:50.610Z,3.10
2019-05-18T08:49:23.059Z,3.83
2019-05-18T08:52:07.518Z,2.83
2019-05-18T08:54:25.952Z,5.25
2019-05-18T08:56:56.629Z,2.83
2019-05-18T08:59:27.125Z,2.87
2019-05-18T09:01:57.677Z,2.50
2019-05-18T09:04:28.121Z,4.45
2019-05-18T09:06:58.759Z,4.40
2019-05-18T09:09:29.096Z,2.80
2019-05-18T09:11:59.427Z,2.33
2019-05-18T09:21:43.272Z,2.60
2019-05-18T09:24:14.377Z,2.80
2019-05-18T09:26:44.947Z,2.95
2019-05-18T09:29:15.117Z,2.62
2019-05-18T09:31:45.313Z,2.85
2019-05-18T09:34:15.670Z,2.55
2019-05-18T09:36:46.317Z,2.90
2019-05-18T09:39:18.383Z,6.00
2019-05-18T09:41:48.715Z,2.52
2019-05-18T09:44:19.137Z,3.33
2019-05-18T09:46:50.431Z,2.50
2019-05-18T09:49:20.966Z,3.08
2019-05-18T09:51:51.487Z,4.12
2019-05-18T09:54:21.803Z,2.27
2019-05-18T09:56:55.726Z,6.87
2019-05-18T09:59:26.148Z,2.72
2019-05-18T10:01:56.309Z,3.22
2019-05-18T10:04:26.458Z,3.02
2019-05-18T10:06:56.853Z,2.65
2019-05-18T10:09:37.015Z,4.75
2019-05-18T10:11:59.537Z,3.17
2019-05-18T10:14:30.050Z,2.37
2019-05-18T10:17:00.612Z,5.72
2019-05-18T10:19:31.255Z,4.25
2019-05-18T10:22:01.698Z,3.20
2019-05-18T10:24:32.019Z,10.20
2019-05-18T10:27:02.195Z,2.08
2019-05-18T10:29:32.443Z,2.58
2019-05-18T10:32:02.786Z,2.50
2019-05-18T10:34:33.024Z,2.90
2019-05-18T10:37:03.244Z,2.00
2019-05-18T10:39:38.737Z,5.03
2019-05-18T10:42:08.197Z,1.80
2019-05-18T10:44:38.441Z,3.67
2019-05-18T10:47:08.608Z,2.60
2019-05-18T10:49:40.611Z,1.95
2019-05-18T10:52:11.127Z,1.70
2019-05-18T10:54:41.417Z,1.70
2019-05-18T10:57:11.634Z,1.25
2019-05-18T10:59:42.155Z,1.80
2019-05-18T11:02:12.497Z,2.40
2019-05-18T11:04:42.992Z,1.02
2019-05-18T11:07:13.321Z,2.87
2019-05-18T11:09:43.485Z,1.40
2019-05-18T11:12:17.201Z,1.67
2019-05-18T11:14:47.517Z,2.08
2019-05-18T11:17:17.735Z,1.62
2019-05-18T11:19:48.910Z,1.60
2019-05-18T11:22:19.163Z,2.17
2019-05-18T11:24:49.967Z,4.50
2019-05-18T11:27:20.313Z,4.20
2019-05-18T11:29:53.859Z,1.95
2019-05-18T11:32:24.035Z,1.55
2019-05-18T11:34:55.416Z,1.72
2019-05-18T11:37:26.080Z,1.75
2019-05-18T11:39:57.174Z,1.60
2019-05-18T11:42:27.568Z,1.57
2019-05-18T11:44:57.862Z,3.70
2019-05-18T11:47:28.168Z,2.05
2019-05-18T11:50:01.323Z,1.50
2019-05-18T11:52:31.670Z,2.05
2019-05-18T11:55:02.114Z,2.42
2019-05-18T11:57:32.702Z,2.10
2019-05-18T12:00:03.077Z,3.22
2019-05-18T12:02:33.332Z,1.47
2019-05-18T12:05:03.822Z,2.08
2019-05-18T12:07:34.329Z,1.47
2019-05-18T12:10:05.368Z,1.30
2019-05-18T12:12:35.742Z,1.80
2019-05-18T12:15:06.875Z,1.20
2019-05-18T12:17:37.505Z,1.35
2019-05-18T12:20:09.225Z,1.40
2019-05-18T12:22:40.214Z,6.15
2019-05-18T12:25:10.792Z,3.98
2019-05-18T12:27:42.005Z,9.70
2019-05-18T12:30:13.245Z,1.00
2019-05-18T12:32:44.162Z,1.10
2019-05-18T12:35:15.607Z,1.32
2019-05-18T12:37:46.587Z,1.10
2019-05-18T12:40:20.838Z,2.22
2019-05-18T12:42:51.200Z,1.22
2019-05-18T12:45:21.991Z,1.30
2019-05-18T12:47:53.151Z,1.87
2019-05-18T12:50:24.232Z,1.35
2019-05-18T12:52:55.018Z,1.72
2019-05-18T12:55:27.556Z,3.70
2019-05-18T12:57:58.530Z,1.50
2019-05-18T13:00:29.361Z,3.08
2019-05-18T13:02:59.839Z,1.60
2019-05-18T13:05:37.055Z,1.52
2019-05-18T13:08:08.265Z,1.63
2019-05-18T13:10:38.880Z,2.00
2019-05-18T13:13:09.725Z,1.53
2019-05-18T13:15:40.117Z,1.83
2019-05-18T13:18:10.511Z,2.83
2019-05-18T13:20:41.466Z,4.83
2019-05-18T13:23:12.475Z,5.70
2019-05-18T13:25:46.849Z,1.30
2019-05-18T13:28:17.715Z,11.37
2019-05-18T13:30:48.622Z,3.03
2019-05-18T13:33:20.729Z,2.40
2019-05-18T13:35:53.061Z,1.80
2019-05-18T13:38:24.076Z,2.00
2019-05-18T13:40:54.663Z,5.33
2019-05-18T13:43:25.451Z,4.50
2019-05-18T13:45:56.070Z,2.70
2019-05-18T13:48:26.875Z,3.60
2019-05-18T13:50:57.526Z,2.77
2019-05-18T13:53:27.771Z,2.07
2019-05-18T13:55:58.364Z,2.50
2019-05-18T13:58:28.863Z,4.83
2019-05-18T14:00:59.185Z,4.67
2019-05-18T14:03:30.949Z,1.80
2019-05-18T14:06:01.393Z,2.37
2019-05-18T14:08:31.778Z,2.03
2019-05-18T14:11:02.000Z,2.50
2019-05-18T14:13:32.603Z,5.03
2019-05-18T14:16:03.291Z,2.10
2019-05-18T14:18:33.694Z,2.30
2019-05-18T14:21:07.223Z,1.30
2019-05-18T14:23:37.739Z,2.10
2019-05-18T14:26:08.235Z,2.27
2019-05-18T14:28:38.717Z,5.70
2019-05-18T14:31:09.258Z,3.47
2019-05-18T14:33:39.791Z,5.07
2019-05-18T14:36:11.454Z,7.83
2019-05-18T14:38:41.808Z,4.80
2019-05-18T14:41:13.168Z,3.20
2019-05-18T14:43:43.889Z,1.83
2019-05-18T14:46:14.359Z,1.87
2019-05-18T14:48:44.922Z,1.77
2019-05-18T14:51:15.549Z,3.30
2019-05-18T14:53:46.171Z,1.93
2019-05-18T14:56:16.472Z,3.10
2019-05-18T14:58:47.929Z,2.73
2019-05-18T15:01:18.479Z,1.50
2019-05-18T15:03:49.048Z,1.10
2019-05-18T15:06:19.458Z,1.50
2019-05-18T15:08:54.120Z,1.80
2019-05-18T15:11:24.318Z,6.10
2019-05-18T15:13:58.087Z,1.83
2019-05-18T15:16:28.405Z,1.57
2019-05-18T15:18:58.874Z,3.43
2019-05-18T15:21:29.035Z,1.40
2019-05-18T15:23:59.712Z,1.50
2019-05-18T15:26:30.204Z,1.97
2019-05-18T15:29:00.415Z,2.10
2019-05-18T15:31:30.625Z,2.07
2019-05-18T15:34:00.983Z,6.40
2019-05-18T15:36:31.329Z,3.50
2019-05-18T15:39:01.945Z,3.70
2019-05-18T15:41:34.160Z,31.37
2019-05-18T15:44:08.109Z,112.90
2019-05-18T15:46:38.550Z,66.40
2019-05-18T15:49:09.115Z,4.90
2019-05-18T15:51:39.618Z,26.63
2019-05-18T15:54:12.465Z,37.43
2019-05-18T15:56:44.299Z,20.13
2019-05-18T15:59:14.712Z,19.40
2019-05-18T16:01:44.982Z,24.33
2019-05-18T16:04:15.395Z,14.33
2019-05-18T16:06:45.992Z,16.00
2019-05-18T16:09:16.313Z,10.70
2019-05-18T16:11:46.478Z,24.20
2019-05-18T16:14:17.330Z,9.50
2019-05-18T16:16:47.923Z,5.93
2019-05-18T16:19:18.947Z,11.40
2019-05-18T16:21:49.353Z,8.40
2019-05-18T16:24:19.762Z,26.23
2019-05-18T16:26:50.070Z,15.73
2019-05-18T16:29:20.770Z,7.85
2019-05-18T16:31:51.112Z,6.23
2019-05-18T16:34:21.449Z,7.00
2019-05-18T16:36:51.680Z,6.47
2019-05-18T16:39:24.034Z,8.40
2019-05-18T16:41:54.778Z,11.50
2019-05-18T16:44:25.050Z,7.10
2019-05-18T16:46:55.382Z,6.17
2019-05-18T16:49:25.628Z,7.60
2019-05-18T16:51:56.315Z,13.27
2019-05-18T16:54:26.661Z,4.00
2019-05-18T16:56:57.003Z,5.60
2019-05-18T16:59:27.358Z,9.30
2019-05-18T17:01:58.340Z,45.00
2019-05-18T17:04:28.708Z,47.13
2019-05-18T17:06:59.282Z,35.97
2019-05-18T17:09:29.751Z,36.25
2019-05-18T17:12:00.348Z,33.43
2019-05-18T17:14:31.156Z,30.90
2019-05-18T17:17:01.509Z,29.73
2019-05-18T17:19:32.469Z,27.33
2019-05-18T17:22:03.034Z,60.57
2019-05-18T17:24:33.792Z,53.17
2019-05-18T17:27:05.171Z,47.33
2019-05-18T17:29:35.585Z,41.13
2019-05-18T17:32:06.133Z,34.80
2019-05-18T17:34:36.769Z,24.83
2019-05-18T17:37:07.265Z,19.73
2019-05-18T17:39:37.752Z,14.40
2019-05-18T17:42:08.101Z,10.27
2019-05-18T17:44:38.335Z,9.03
2019-05-18T17:47:08.867Z,13.70
2019-05-18T17:49:40.054Z,10.93
2019-05-18T17:52:10.297Z,7.20
2019-05-18T17:54:40.733Z,4.10
2019-05-18T17:57:11.182Z,4.13
2019-05-18T17:59:41.387Z,5.40
2019-05-18T18:02:11.644Z,4.80
2019-05-18T18:04:42.074Z,5.87
2019-05-18T18:07:12.345Z,4.30
2019-05-18T18:09:42.471Z,3.20
2019-05-18T18:12:12.807Z,4.23
2019-05-18T18:14:43.356Z,4.90
2019-05-18T18:17:17.791Z,4.10
2019-05-18T18:19:48.687Z,5.73
2019-05-18T18:22:19.161Z,8.50
2019-05-18T18:24:49.599Z,5.53
2019-05-18T18:27:25.286Z,4.27
2019-05-18T18:29:52.210Z,4.77
2019-05-18T18:32:22.832Z,3.57
2019-05-18T18:34:53.424Z,5.43
2019-05-18T18:37:25.312Z,3.40
2019-05-18T18:39:55.804Z,4.17
2019-05-18T18:42:26.706Z,5.03
2019-05-18T18:44:57.454Z,10.00
2019-05-18T18:47:30.756Z,3.93
2019-05-18T18:50:01.424Z,4.23
2019-05-18T18:52:33.421Z,4.47
2019-05-18T18:55:04.138Z,5.00
2019-05-18T18:57:41.100Z,3.97
2019-05-18T19:00:07.127Z,4.73
2019-05-18T19:02:38.274Z,4.90
2019-05-18T19:05:08.888Z,4.87
2019-05-18T19:07:39.460Z,5.60
2019-05-18T19:10:10.842Z,4.77
2019-05-18T19:12:41.625Z,4.90
2019-05-18T19:15:12.054Z,5.33
2019-05-18T19:17:42.711Z,4.72
2019-05-18T19:20:13.603Z,8.53
2019-05-18T19:22:45.419Z,5.83
2019-05-18T19:25:16.245Z,4.93
2019-05-18T19:27:54.530Z,5.83
2019-05-18T19:30:19.834Z,4.47
2019-05-18T19:32:50.427Z,4.67
2019-05-18T19:35:21.238Z,4.47
2019-05-18T19:37:51.870Z,22.30
2019-05-18T19:40:22.867Z,5.50
2019-05-18T19:42:53.633Z,6.83
2019-05-18T19:45:24.125Z,7.10
2019-05-18T19:47:55.007Z,7.80
2019-05-18T19:50:26.179Z,6.83
2019-05-18T19:52:56.997Z,5.87
2019-05-18T19:55:28.079Z,5.83
2019-05-18T19:58:08.442Z,4.80
2019-05-18T20:00:33.877Z,6.20
2019-05-18T20:03:05.043Z,6.35
2019-05-18T20:05:36.312Z,10.53
2019-05-18T20:08:09.228Z,4.90
2019-05-18T20:10:41.250Z,5.63
2019-05-18T20:13:11.888Z,8.60
2019-05-18T20:15:43.835Z,5.63
2019-05-18T20:18:14.425Z,6.30
2019-05-18T20:20:45.196Z,13.93
2019-05-18T20:23:15.736Z,7.97
2019-05-18T20:25:46.619Z,7.30
2019-05-18T20:28:23.785Z,6.60
2019-05-18T20:30:50.163Z,6.40
2019-05-18T20:33:21.335Z,7.83
2019-05-18T20:35:52.047Z,7.53
2019-05-18T20:38:22.773Z,6.12
2019-05-18T20:40:53.618Z,5.60
2019-05-18T20:43:24.394Z,8.53
2019-05-18T20:45:55.103Z,5.57
2019-05-18T20:48:26.381Z,5.30
2019-05-18T20:50:57.203Z,5.40
2019-05-18T20:53:27.690Z,12.50
2019-05-18T20:55:58.369Z,5.47
2019-05-18T20:58:39.294Z,6.23
2019-05-18T21:01:02.061Z,6.20
2019-05-18T21:03:33.129Z,6.00
2019-05-18T21:06:04.109Z,6.83
2019-05-18T21:08:34.571Z,5.43
2019-05-18T21:11:05.273Z,5.90
2019-05-18T21:13:36.049Z,5.90
2019-05-18T21:16:07.005Z,6.63
2019-05-18T21:18:37.604Z,10.57
2019-05-18T21:21:08.409Z,7.80
2019-05-18T21:23:39.743Z,8.83
2019-05-18T21:26:11.027Z,7.07
2019-05-18T21:28:54.821Z,6.90
2019-05-18T21:31:14.355Z,6.00
2019-05-18T21:33:46.393Z,6.27
2019-05-18T21:36:17.397Z,6.70
2019-05-18T21:38:48.110Z,6.03
2019-05-18T21:41:19.613Z,6.63
2019-05-18T21:43:50.239Z,6.33
2019-05-18T21:46:21.570Z,5.90
2019-05-18T21:48:52.221Z,9.20
2019-05-18T21:51:25.847Z,6.70
2019-05-18T21:54:00.047Z,5.50
2019-05-18T21:56:30.698Z,6.70
2019-05-18T21:59:12.127Z,6.27
2019-05-18T22:01:41.008Z,5.53
2019-05-18T22:04:11.314Z,6.50
2019-05-18T22:06:41.705Z,6.30
2019-05-18T22:09:11.935Z,5.47
2019-05-18T22:11:42.187Z,5.27
2019-05-18T22:14:12.815Z,5.33
2019-05-18T22:16:43.252Z,5.07
2019-05-18T22:19:13.708Z,5.50
2019-05-18T22:21:44.277Z,5.40
2019-05-18T22:24:14.634Z,5.53
2019-05-18T22:26:45.086Z,5.00
2019-05-18T22:29:15.380Z,5.20
2019-05-18T22:31:45.552Z,8.17
2019-05-18T22:34:15.911Z,7.20
2019-05-18T22:36:46.068Z,7.27
2019-05-18T22:39:17.903Z,6.10
2019-05-18T22:41:48.181Z,5.70
2019-05-18T22:44:18.453Z,4.43
2019-05-18T22:46:48.733Z,5.80
2019-05-18T22:49:19.449Z,4.80
2019-05-18T22:51:49.822Z,5.63
2019-05-18T22:54:20.204Z,5.13
2019-05-18T22:56:50.493Z,7.67
2019-05-18T22:59:21.460Z,6.33
2019-05-18T23:01:51.747Z,5.83
2019-05-18T23:04:21.974Z,6.30
2019-05-18T23:06:52.235Z,5.90
2019-05-18T23:09:22.547Z,6.50
2019-05-18T23:11:53.118Z,6.50
2019-05-18T23:14:23.509Z,7.83
2019-05-18T23:16:56.514Z,6.53
2019-05-18T23:19:26.715Z,6.80
2019-05-18T23:21:57.284Z,6.60
2019-05-18T23:24:27.541Z,7.00
2019-05-18T23:26:57.806Z,6.97
2019-05-18T23:29:28.521Z,6.73
2019-05-18T23:31:58.857Z,6.42
2019-05-18T23:34:29.435Z,7.63
2019-05-18T23:37:00.120Z,6.73
2019-05-18T23:39:30.341Z,6.93
2019-05-18T23:42:00.700Z,7.47
2019-05-18T23:44:31.064Z,7.23
2019-05-18T23:47:01.264Z,6.47
2019-05-18T23:49:31.473Z,7.00
2019-05-18T23:52:01.749Z,6.40
2019-05-18T23:54:32.407Z,6.30
2019-05-18T23:57:02.756Z,7.30
2019-05-18T23:59:35.884Z,7.13
